Flight Track Log - Related Links

Times and Time Zones

All times are in EDT time to prevent confusion due to time zone crossing. See the SWA494 flight status page for this flight to view local times or setup timezone preferences in your user account.

Time Position Orientation Groundspeed Altitude Reporting Facility
EDT Latitude Longitude Course Direction KTS MPH feet Rate Location/Type
Mon 03:05:13 PM 33.9394 -118.4553 223° Southwest 161 185 1,500  Level Los Angeles Center
Mon 03:06:15 PM 33.8956 -118.5047 223° Southwest 204 235 3,500 1,790 Climbing Los Angeles Center
Mon 03:07:17 PM 33.8342 -118.5189 191° South 255 293 5,200 2,323 Climbing Los Angeles Center
Mon 03:08:19 PM 33.7544 -118.5203 181° South 291 335 8,300 2,855 Climbing Los Angeles Center
Mon 03:09:21 PM 33.6786 -118.4511 143° Southeast 343 395 11,100 1,403 Climbing Los Angeles Center
Mon 03:10:23 PM 33.6767 -118.3347 91° East 358 412 11,200 1,258 Climbing Los Angeles Center
Mon 03:11:25 PM 33.6756 -118.2136 91° East 371 427 13,700 2,903 Climbing Los Angeles Center
Mon 03:12:27 PM 33.6731 -118.0575 91° East 391 450 17,200 2,855 Climbing Los Angeles Center
Mon 03:13:29 PM 33.6706 -117.9189 91° East 411 473 19,600 2,419 Climbing Los Angeles Center
Mon 03:14:31 PM 33.6681 -117.7747 91° East 432 497 22,200 2,323 Climbing Los Angeles Center
Mon 03:15:33 PM 33.6650 -117.6283 91° East 440 506 24,400 2,032 Climbing Los Angeles Center
Mon 03:16:35 PM 33.6619 -117.4767 91° East 453 521 26,400 1,935 Climbing Los Angeles Center
Mon 03:17:37 PM 33.6592 -117.3228 91° East 463 533 28,400 1,935 Climbing Los Angeles Center
Mon 03:18:39 PM 33.6547 -117.1344 92° East 471 542 30,400 1,597 Climbing Los Angeles Center
Mon 03:19:41 PM 33.6514 -116.9753 91° East 476 548 31,700 1,403 Climbing Los Angeles Center
Mon 03:20:43 PM 33.6344 -116.8219 98° East 488 562 33,300 1,344 Climbing Los Angeles Center
Mon 03:21:46 PM 33.6156 -116.6603 98° East 487 560 34,500 1,296 Climbing Los Angeles Center
Mon 03:22:48 PM 33.5914 -116.4667 98° East 487 560 36,000 1,113 Climbing Los Angeles Center
Mon 03:23:50 PM 33.5672 -116.3036 100° East 491 565 36,800 484 Climbing Los Angeles Center
Mon 03:24:52 PM 33.5453 -116.1383 99° East 498 573 37,000 145 Climbing Los Angeles Center
Mon 03:25:54 PM 33.5219 -115.9756 100° East 495 570 37,100  Climbing Los Angeles Center
Mon 03:26:56 PM 33.4994 -115.8136 99° East 492 566 37,000  Descending Los Angeles Center
Mon 03:27:58 PM 33.4761 -115.6500 100° East 497 572 37,100 48 Climbing Los Angeles Center
Mon 03:29:00 PM 33.4544 -115.4850 99° East 500 575 37,100  Level Los Angeles Center
Mon 03:30:02 PM 33.4264 -115.2883 100° East 500 575 37,100  Level Los Angeles Center
Mon 03:31:04 PM 33.4031 -115.1253 100° East 498 573 37,100 -48 Level Los Angeles Center
Mon 03:32:06 PM 33.3794 -114.9628 100° East 496 571 37,000 -48 Descending Los Angeles Center
Mon 03:33:08 PM 33.3567 -114.7989 99° East 500 575 37,000 48 Level Los Angeles Center
Mon 03:34:10 PM 33.3311 -114.6361 101° East 501 577 37,100 67 Climbing Los Angeles Center
Mon 03:34:37 PM 33.3242 -114.5550 96° East 499 574 37,100  Level Albuquerque Center
Mon 03:35:39 PM 33.3017 -114.3931 99° East 496 571 37,100 -48 Level Albuquerque Center
Mon 03:36:41 PM 33.2756 -114.2308 101° East 497 572 37,000  Descending Albuquerque Center
Mon 03:37:43 PM 33.2531 -114.0692 99° East 495 570 37,100 48 Climbing Albuquerque Center
Mon 03:38:45 PM 33.2233 -113.8758 100° East 495 570 37,100 -48 Level Albuquerque Center
Mon 03:39:47 PM 33.1975 -113.7142 101° East 495 570 37,000  Descending Albuquerque Center
Mon 03:40:49 PM 33.1733 -113.5533 100° East 493 567 37,100  Climbing Albuquerque Center
Mon 03:41:51 PM 33.1481 -113.3925 101° East 493 567 37,000 -48 Descending Albuquerque Center
Mon 03:42:53 PM 33.1225 -113.2308 101° East 494 568 37,000  Level Albuquerque Center
Mon 03:43:55 PM 33.0961 -113.0706 101° East 492 566 37,000 48 Level Albuquerque Center
Mon 03:44:57 PM 33.0711 -112.9103 101° East 491 565 37,100  Climbing Albuquerque Center
Mon 03:45:59 PM 33.0397 -112.7186 101° East 490 564 37,000  Descending Albuquerque Center
Mon 03:47:01 PM 33.0136 -112.5597 101° East 488 562 37,100 48 Climbing Albuquerque Center
Mon 03:48:03 PM 32.9872 -112.3997 101° East 490 564 37,100  Level Albuquerque Center
Mon 03:49:05 PM 32.9639 -112.2581 101° East 489 563 37,100  Level Albuquerque Center
Mon 03:50:07 PM 32.9328 -112.0672 101° East 491 565 37,100  Level Albuquerque Center
Mon 03:51:09 PM 32.9069 -111.9103 101° East 488 562 37,100  Level Albuquerque Center
Mon 03:52:11 PM 32.8800 -111.7528 101° East 488 562 37,100  Level Albuquerque Center
Mon 03:53:13 PM 32.8542 -111.5947 101° East 489 563 37,100  Level Albuquerque Center
Mon 03:54:15 PM 32.8258 -111.4381 102° East 489 563 37,100  Level Albuquerque Center
Mon 03:55:17 PM 32.7922 -111.2489 102° East 490 564 37,100  Level Albuquerque Center
Mon 03:56:19 PM 32.7658 -111.0917 101° East 488 562 37,100  Level Albuquerque Center
Mon 03:57:21 PM 32.7383 -110.9347 102° East 488 562 37,100  Level Albuquerque Center
Mon 03:58:23 PM 32.7100 -110.7783 102° East 487 560 37,100  Level Albuquerque Center
Mon 03:59:25 PM 32.6769 -110.5981 102° East 486 559 37,100  Level Albuquerque Center
Mon 04:00:27 PM 32.6542 -110.4672 102° East 484 557 37,100  Level Albuquerque Center
Mon 04:01:29 PM 32.6200 -110.2897 103° East 484 557 37,100  Level Albuquerque Center
Mon 04:02:31 PM 32.5925 -110.1350 102° East 485 558 37,100  Level Albuquerque Center
Mon 04:03:33 PM 32.5631 -109.9814 103° East 484 557 37,100  Level Albuquerque Center
Mon 04:04:35 PM 32.5292 -109.7992 102° East 479 551 37,100  Level Albuquerque Center
Mon 04:05:37 PM 32.4983 -109.6456 103° East 485 558 37,100  Level Albuquerque Center
Mon 04:06:39 PM 32.4700 -109.4928 102° East 484 557 37,100  Level Albuquerque Center
Mon 04:07:41 PM 32.4408 -109.3444 103° East 475 547 37,100  Level Albuquerque Center
Mon 04:08:43 PM 32.4061 -109.1625 103° East 478 550 37,100  Level Albuquerque Center
Mon 04:09:45 PM 32.3767 -109.0083 103° East 485 558 37,100  Level Albuquerque Center
Mon 04:10:47 PM 32.3472 -108.8561 103° East 485 558 37,100  Level Albuquerque Center
Mon 04:11:49 PM 32.3183 -108.7056 103° East 481 554 37,100  Level Albuquerque Center
Mon 04:12:51 PM 32.2878 -108.5522 103° East 482 555 37,100 -48 Level Albuquerque Center
Mon 04:13:53 PM 32.2506 -108.3642 103° East 484 557 37,000 -48 Descending Albuquerque Center
Mon 04:14:55 PM 32.2206 -108.2089 103° East 486 559 37,000 48 Level Albuquerque Center
Mon 04:15:57 PM 32.1878 -108.0547 104° East 486 559 37,100  Climbing Albuquerque Center
Mon 04:16:59 PM 32.1572 -107.9014 103° East 484 557 37,000 -48 Descending Albuquerque Center
Mon 04:18:01 PM 32.1264 -107.7500 103° East 480 552 37,000 48 Level Albuquerque Center
Mon 04:19:03 PM 32.0956 -107.5983 103° East 479 551 37,100 48 Climbing Albuquerque Center
Mon 04:20:05 PM 32.0583 -107.4178 104° East 477 549 37,100 -48 Level Albuquerque Center
Mon 04:21:07 PM 32.0278 -107.2675 103° East 477 549 37,000 -48 Descending Albuquerque Center
Mon 04:22:09 PM 31.9961 -107.1164 104° East 478 550 37,000 49 Level Albuquerque Center
Mon 04:23:10 PM 31.9647 -106.9661 104° East 479 551 37,100 49 Climbing Albuquerque Center
Mon 04:24:12 PM 31.9322 -106.8156 104° East 478 550 37,100 -48 Level Albuquerque Center
Mon 04:25:14 PM 31.8931 -106.6344 104° East 478 550 37,000 -48 Descending Albuquerque Center
Mon 04:26:16 PM 31.8617 -106.4872 104° East 484 557 37,000  Level Albuquerque Center
Mon 04:27:19 PM 31.8286 -106.3344 104° East 484 557 37,000  Level Albuquerque Center
Mon 04:28:20 PM 31.8033 -106.1794 101° East 489 563 37,000  Level Albuquerque Center
Mon 04:29:22 PM 31.7844 -106.0236 98° East 483 556 37,000 48 Level Albuquerque Center
Mon 04:30:24 PM 31.7614 -105.8353 98° East 486 559 37,100 48 Climbing Albuquerque Center
Mon 04:31:26 PM 31.7422 -105.6775 98° East 486 559 37,100 -48 Level Albuquerque Center
Mon 04:32:28 PM 31.7233 -105.5200 98° East 486 559 37,000 -48 Descending Albuquerque Center
Mon 04:33:30 PM 31.7039 -105.3633 98° East 486 559 37,000  Level Albuquerque Center
Mon 04:34:32 PM 31.6844 -105.2064 98° East 486 559 37,000  Level Albuquerque Center
Mon 04:35:34 PM 31.6642 -105.0481 99° East 487 560 37,000 48 Level Albuquerque Center
Mon 04:36:36 PM 31.6450 -104.8872 98° East 493 567 37,100 49 Climbing Albuquerque Center
Mon 04:37:37 PM 31.6206 -104.6983 99° East 490 564 37,100 -49 Level Albuquerque Center
Mon 04:38:39 PM 31.5997 -104.5414 99° East 488 562 37,000  Descending Albuquerque Center
Mon 04:39:41 PM 31.5800 -104.3856 98° East 485 558 37,100  Climbing Albuquerque Center
Mon 04:40:43 PM 31.5583 -104.2308 99° East 483 556 37,000 -48 Descending Albuquerque Center
Mon 04:41:45 PM 31.5381 -104.0747 99° East 483 556 37,000  Level Albuquerque Center
Mon 04:42:47 PM 31.5181 -103.9192 99° East 483 556 37,000  Level Albuquerque Center
Mon 04:43:49 PM 31.4931 -103.7358 99° East 481 554 37,000 48 Level Albuquerque Center
Mon 04:44:51 PM 31.4706 -103.5808 100° East 481 554 37,100  Climbing Albuquerque Center
Mon 04:45:53 PM 31.4500 -103.4244 99° East 486 559 37,000 48 Descending Albuquerque Center
Mon 04:46:55 PM 31.4319 -103.2686 98° East 484 557 37,200 435 Climbing Albuquerque Center
Mon 04:47:57 PM 31.4125 -103.1081 98° East 493 567 37,900 677 Climbing Albuquerque Center
Mon 04:48:59 PM 31.3908 -102.9444 99° East 504 580 38,600 532 Climbing Albuquerque Center
Mon 04:50:01 PM 31.3647 -102.7503 99° East 506 582 39,000 242 Climbing Albuquerque Center
Mon 04:51:03 PM 31.3450 -102.5919 98° East 498 573 39,100 48 Climbing Albuquerque Center
Mon 04:52:05 PM 31.3233 -102.4203 98° East 507 583 39,100  Level Albuquerque Center
Mon 04:53:07 PM 31.3017 -102.2617 99° East 501 577 39,100  Level Albuquerque Center
Mon 04:54:09 PM 31.2814 -102.1050 99° East 494 568 39,100  Level Albuquerque Center
Mon 04:55:11 PM 31.2594 -101.9475 99° East 493 567 39,100  Level Albuquerque Center
Mon 04:56:13 PM 31.2383 -101.7792 98° East 494 568 39,100  Level Albuquerque Center
Mon 04:57:14 PM 31.2158 -101.6197 99° East 498 573 39,100 -63 Level Albuquerque Center
Mon 04:57:48 PM 31.2036 -101.5253 99° East 496 571 39,000 -63 Descending Houston Center
Mon 04:58:50 PM 31.1817 -101.3681 99° East 493 567 39,000 48 Level Houston Center
Mon 04:59:52 PM 31.1608 -101.2156 99° East 496 571 39,100 48 Climbing Houston Center
Mon 05:00:54 PM 31.1342 -101.0233 99° East 502 578 39,100  Level Houston Center
Mon 05:01:56 PM 31.1106 -100.8656 100° East 495 570 39,100  Level Houston Center
Mon 05:02:58 PM 31.0889 -100.7058 99° East 499 574 39,100 -48 Level Houston Center
Mon 05:04:00 PM 31.0656 -100.5464 100° East 498 573 39,000  Descending Houston Center
Mon 05:05:02 PM 31.0422 -100.3864 100° East 501 577 39,100 48 Climbing Houston Center
Mon 05:06:05 PM 31.0192 -100.2275 100° East 498 573 39,100  Level Houston Center
Mon 05:07:07 PM 30.9908 -100.0364 100° East 498 573 39,100  Level Houston Center
Mon 05:08:09 PM 30.9669 -99.8797 100° East 493 567 39,100  Level Houston Center
Mon 05:09:11 PM 30.9419 -99.7211 100° East 494 568 39,100  Level Houston Center
Mon 05:10:13 PM 30.9258 -99.5597 97° East 500 575 39,100  Level Houston Center
Mon 05:11:15 PM 30.9078 -99.3994 97° East 499 574 39,100  Level Houston Center
Mon 05:12:17 PM 30.8911 -99.2400 97° East 497 572 39,100  Level Houston Center
Mon 05:13:19 PM 30.8689 -99.0525 98° East 497 572 39,100  Level Houston Center
Mon 05:14:21 PM 30.8511 -98.8914 97° East 498 573 39,100  Level Houston Center
Mon 05:15:23 PM 30.8347 -98.7317 97° East 495 570 39,100 -432 Level Houston Center
Mon 05:16:26 PM 30.8147 -98.5706 98° East 498 573 38,200 -864 Descending Houston Center
Mon 05:17:28 PM 30.7969 -98.4072 97° East 504 580 37,300 -919 Descending Houston Center
Mon 05:18:30 PM 30.7781 -98.2467 98° East 500 575 36,300 -1,016 Descending Houston Center
Mon 05:19:32 PM 30.7564 -98.0586 98° East 499 574 35,200 -1,016 Descending Houston Center
Mon 05:20:34 PM 30.7364 -97.8981 98° East 500 575 34,200 -1,016 Descending Houston Center
Mon 05:21:36 PM 30.7169 -97.7408 98° East 493 567 33,100 -1,016 Descending Houston Center
Mon 05:22:38 PM 30.6989 -97.5889 98° East 477 549 32,100 -1,161 Descending Houston Center
Mon 05:23:40 PM 30.6786 -97.4383 99° East 473 544 30,700 -1,597 Descending Houston Center
Mon 05:24:42 PM 30.6353 -97.3011 110° East 454 522 28,800 -2,016 Descending Houston Center
Mon 05:25:45 PM 30.5831 -97.1464 111° Southeast 441 507 26,500 -2,160 Descending Houston Center
Mon 05:26:47 PM 30.5392 -97.0186 112° Southeast 429 494 24,300 -2,032 Descending Houston Center
Mon 05:27:49 PM 30.4964 -96.8908 111° Southeast 423 487 22,300 -1,839 Descending Houston Center
Mon 05:28:51 PM 30.4544 -96.7672 111° Southeast 412 474 20,500 -1,790 Descending Houston Center
Mon 05:29:53 PM 30.4128 -96.6464 112° Southeast 402 463 18,600 -1,937 Descending Houston Center
Mon 05:30:58 PM 30.3653 -96.5094 112° Southeast 389 448 16,400 -1,938 Descending Houston Center
Mon 05:31:29 PM 30.3461 -96.4536 112° Southeast 381 438 15,500 -1,831 Descending Houston Center
Mon 05:31:57 PM 30.3267 -96.3967 112° Southeast 375 432 14,600 -2,032 Descending Houston Center
Mon 05:32:31 PM 30.3047 -96.3372 113° Southeast 368 423 13,400 -1,742 Descending Houston Center
Mon 05:32:59 PM 30.2775 -96.2908 124° Southeast 375 432 12,800 -1,377 Descending Houston Center
Mon 05:33:32 PM 30.2408 -96.2500 136° Southeast 350 403 12,000 -1,452 Descending Houston Center
Mon 05:34:01 PM 30.2094 -96.2122 134° Southeast 344 396 11,300 -871 Descending Houston Center
Mon 05:34:34 PM 30.1619 -96.1842 153° Southeast 316 364 11,100 -286 Descending Houston Center
Mon 05:35:04 PM 30.1225 -96.1614 153° Southeast 324 373 11,000 -98 Descending Houston Center
Mon 05:35:35 PM 30.0783 -96.1403 158° South 324 373 11,000  Level Houston Center
Mon 05:36:06 PM 30.0403 -96.1181 153° Southeast 324 373 11,000  Level Houston Center
Mon 05:36:36 PM 29.9947 -96.0944 156° South 324 373 11,000  Level Houston Center
Mon 05:37:08 PM 29.9581 -96.0750 155° Southeast 325 374 11,000 98 Level Houston Center
Mon 05:37:37 PM 29.9111 -96.0483 154° Southeast 325 374 11,100  Climbing Houston Center
Mon 05:38:10 PM 29.8742 -96.0308 158° South 328 377 11,000 -97 Descending Houston Center
Mon 05:38:39 PM 29.8275 -96.0050 154° Southeast 326 375 11,000  Level Houston Center
Mon 05:39:12 PM 29.7869 -95.9839 156° South 326 375 11,000  Level Houston Center
Mon 05:39:40 PM 29.7456 -95.9542 148° Southeast 320 368 11,000  Level Houston Center
Mon 05:40:14 PM 29.7133 -95.9239 141° Southeast 329 379 11,000 -387 Level Houston Center
Mon 05:40:42 PM 29.6725 -95.8881 143° Southeast 325 374 10,600 -762 Descending Houston Center
Mon 05:41:17 PM 29.6433 -95.8619 142° Southeast 320 368 10,200 -1,180 Descending Houston Center
Mon 05:41:43 PM 29.6181 -95.8175 123° Southeast 300 345 9,400 -1,355 Descending Houston Center
Mon 05:42:19 PM 29.6044 -95.7811 113° Southeast 297 342 8,800 -1,279 Descending Houston Center
Mon 05:42:44 PM 29.5850 -95.7300 114° Southeast 289 333 8,100 -1,548 Descending Houston Center
Mon 05:43:21 PM 29.5669 -95.6786 112° Southeast 291 335 7,200 -1,548 Descending Houston Center
Mon 05:43:46 PM 29.5797 -95.6467 65° Northeast 287 330 6,500 -1,161 Descending Houston Center
Mon 05:44:23 PM 29.6075 -95.6022 54° Northeast 286 329 6,000 -492 Descending Houston Center
Mon 05:44:47 PM 29.6297 -95.5711 51° Northeast 260 299 6,000 -677 Level Houston Center
Mon 05:45:25 PM 29.6578 -95.5417 42° Northeast 264 304 5,300 -1,082 Descending Houston Center
Mon 05:45:48 PM 29.6814 -95.5167 43° Northeast 255 293 4,900 -677 Descending Houston Center
Mon 05:46:27 PM 29.7106 -95.4883 40° Northeast 254 292 4,600 -774 Descending Houston Center
Mon 05:46:50 PM 29.7336 -95.4672 38° Northeast 220 253 4,100 -1,065 Descending Houston Center
Mon 05:47:29 PM 29.7469 -95.4372 63° Northeast 228 262 3,500 -1,164 Descending Houston Center
Mon 05:47:57 PM 29.7464 -95.4008 91° East 187 215 2,800 -1,065 Descending Houston Center
Mon 05:48:31 PM 29.7339 -95.3847 132° Southeast 197 227 2,400 -984 Descending Houston Center
Mon 05:48:58 PM 29.7111 -95.3594 136° Southeast 185 213 1,800 -1,065 Descending Houston Center
Mon 05:49:33 PM 29.6917 -95.3350 132° Southeast 185 213 1,300 -871 Descending Houston Center
Mon 05:50:00 PM 29.6781 -95.3175 132° Southeast 147 169 900 -762 Descending Houston Center
Mon 05:50:36 PM 29.6639 -95.3008 134° Southeast 167 192 500 -490 Descending Houston Center
Mon 05:51:38 PM 29.6417 -95.2739 133° Southeast 152 175 100 -387 Descending Houston Center
Mon 05:53:00 PM 29.6333 -95.2667 North  Level FlightAware Approximate

Login

Don't have an account? Register now (free) for customized features, flight alerts, and more!